createdAt,value
2023-01-13T11:32:29.278Z,16.33
2023-01-13T11:35:07.374Z,19.30
2023-01-13T11:37:42.078Z,19.02
2023-01-13T11:40:20.094Z,18.60
2023-01-13T11:42:52.108Z,14.95
2023-01-13T11:45:24.251Z,13.77
2023-01-13T11:47:58.287Z,19.83
2023-01-13T11:50:33.927Z,18.42
2023-01-13T11:53:28.485Z,15.15
2023-01-13T11:56:13.785Z,17.85
2023-01-13T11:59:06.890Z,17.55
2023-01-13T12:02:07.347Z,17.25
2023-01-13T12:04:43.776Z,19.60
2023-01-13T12:07:19.875Z,16.10
2023-01-13T12:10:03.756Z,17.42
2023-01-13T12:12:45.048Z,16.42
2023-01-13T12:15:45.281Z,17.55
2023-01-13T12:18:27.346Z,17.33
2023-01-13T12:21:09.065Z,16.08
2023-01-13T12:23:41.634Z,12.90
2023-01-13T12:26:11.700Z,15.55
2023-01-13T12:28:46.717Z,18.77
2023-01-13T12:31:17.044Z,17.33
2023-01-13T12:34:09.956Z,20.52
2023-01-13T12:36:55.154Z,19.73
2023-01-13T12:39:30.360Z,16.05
2023-01-13T12:42:19.135Z,22.40
2023-01-13T12:45:07.056Z,22.85
2023-01-13T12:47:35.973Z,19.98
2023-01-13T12:50:36.278Z,22.05
2023-01-13T12:53:33.213Z,22.27
2023-01-13T12:56:29.800Z,18.20
2023-01-13T12:59:34.707Z,17.00
2023-01-13T13:02:31.740Z,22.13
2023-01-13T13:05:18.766Z,20.88
2023-01-13T13:07:49.659Z,20.70
2023-01-13T13:10:28.315Z,20.08
2023-01-13T13:13:19.246Z,18.08
2023-01-13T13:15:47.912Z,18.50
2023-01-13T13:18:25.219Z,17.65
2023-01-13T13:21:04.057Z,17.77
2023-01-13T13:24:03.154Z,19.00
2023-01-13T13:26:38.027Z,19.48
2023-01-13T13:29:24.862Z,17.48
2023-01-13T13:32:16.103Z,19.10
2023-01-13T13:34:51.543Z,18.85
2023-01-13T13:37:59.776Z,18.58
2023-01-13T13:41:01.432Z,17.45
2023-01-13T13:43:58.384Z,15.95
2023-01-13T13:46:47.588Z,17.95
2023-01-13T13:49:16.308Z,18.15
2023-01-13T13:54:18.584Z,18.63
2023-01-13T13:56:47.817Z,14.88
2023-01-13T13:59:19.380Z,19.73
2023-01-13T14:01:53.727Z,19.58
2023-01-13T14:04:26.452Z,19.58
2023-01-13T14:06:56.045Z,19.58
2023-01-13T14:09:24.944Z,18.35
2023-01-13T14:11:57.726Z,20.52
2023-01-13T14:14:26.200Z,21.80
2023-01-13T14:16:55.005Z,21.33
2023-01-13T14:19:33.180Z,22.10
2023-01-13T14:22:02.228Z,21.73
2023-01-13T14:24:30.321Z,19.88
2023-01-13T14:27:16.734Z,20.20
2023-01-13T14:29:45.554Z,19.42
2023-01-13T14:34:42.298Z,18.88
2023-01-13T14:37:25.317Z,19.23
2023-01-13T14:39:53.886Z,23.85
2023-01-13T14:42:22.208Z,22.25
2023-01-13T14:44:55.202Z,21.63
2023-01-13T14:47:27.653Z,21.00
2023-01-13T14:50:01.107Z,20.95
2023-01-13T14:52:32.575Z,20.33
2023-01-13T14:55:33.812Z,20.05
2023-01-13T14:58:24.357Z,18.48
2023-01-13T15:01:30.284Z,23.58
2023-01-13T15:04:16.147Z,21.33
2023-01-13T15:06:46.829Z,21.88
2023-01-13T15:09:14.055Z,24.85
2023-01-13T15:11:41.026Z,22.25
2023-01-13T15:14:11.334Z,22.80
2023-01-13T15:16:39.571Z,25.35
2023-01-13T15:19:09.942Z,26.63
2023-01-13T15:21:36.804Z,27.27
2023-01-13T15:24:05.377Z,25.83
2023-01-13T15:26:35.720Z,31.75
2023-01-13T15:29:05.462Z,30.33
2023-01-13T15:31:32.812Z,31.38
2023-01-13T15:34:01.521Z,30.52
2023-01-13T15:36:30.696Z,29.95
2023-01-13T15:38:59.452Z,30.83
2023-01-13T15:41:47.901Z,31.63
2023-01-13T15:44:35.244Z,32.95
2023-01-13T15:47:05.807Z,32.30
2023-01-13T15:49:37.650Z,32.10
2023-01-13T15:52:14.547Z,30.30
2023-01-13T15:54:43.581Z,31.73
2023-01-13T15:57:18.777Z,31.02
2023-01-13T15:59:46.038Z,29.23
2023-01-13T16:02:15.962Z,30.60
2023-01-13T16:04:59.061Z,29.73
2023-01-13T16:07:26.154Z,29.98
2023-01-13T16:09:53.445Z,31.95
2023-01-13T16:12:20.420Z,31.35
2023-01-13T16:14:47.664Z,29.13
2023-01-13T16:17:17.296Z,29.35
2023-01-13T16:19:49.772Z,26.23
2023-01-13T16:22:17.506Z,30.55
2023-01-13T16:24:44.957Z,25.85
2023-01-13T16:27:14.849Z,26.65
2023-01-13T16:29:42.433Z,27.33
2023-01-13T16:32:09.355Z,26.67
2023-01-13T16:34:36.687Z,27.38
2023-01-13T16:37:06.649Z,25.42
2023-01-13T16:39:33.983Z,25.75
2023-01-13T16:42:03.521Z,24.98
2023-01-13T16:44:30.740Z,27.67
2023-01-13T16:46:57.754Z,29.20
2023-01-13T16:49:24.873Z,25.15
2023-01-13T16:51:51.788Z,24.27
2023-01-13T16:54:23.343Z,24.48
2023-01-13T16:56:50.188Z,25.55
2023-01-13T16:59:17.766Z,25.55
2023-01-13T17:01:44.968Z,26.17
2023-01-13T17:04:16.073Z,24.35
2023-01-13T17:06:50.778Z,22.83
2023-01-13T17:09:21.628Z,23.10
2023-01-13T17:11:48.830Z,22.80
2023-01-13T17:14:19.044Z,22.58
2023-01-13T17:16:46.762Z,22.83
2023-01-13T17:19:14.375Z,22.52
2023-01-13T17:21:41.445Z,21.40
2023-01-13T17:24:09.690Z,20.77
2023-01-13T17:26:42.089Z,23.90
2023-01-13T17:29:13.836Z,25.63
2023-01-13T17:31:41.947Z,25.27
2023-01-13T17:34:11.442Z,26.00
2023-01-13T17:36:39.005Z,23.48
2023-01-13T17:39:07.374Z,22.75
2023-01-13T17:41:34.404Z,21.15
2023-01-13T17:44:02.989Z,22.88
2023-01-13T17:46:29.888Z,21.27
2023-01-13T17:48:57.145Z,21.02
2023-01-13T17:51:25.174Z,21.88
2023-01-13T17:53:53.241Z,20.73
2023-01-13T17:56:20.548Z,22.00
2023-01-13T17:58:47.971Z,20.30
2023-01-13T18:01:18.164Z,21.08
2023-01-13T18:03:46.392Z,22.67
2023-01-13T18:06:16.685Z,23.23
2023-01-13T18:08:44.052Z,22.63
2023-01-13T18:11:11.022Z,23.00
2023-01-13T18:13:41.085Z,23.95
2023-01-13T18:16:16.113Z,21.60
2023-01-13T18:18:46.491Z,22.02
2023-01-13T18:21:37.038Z,22.58
2023-01-13T18:24:25.653Z,25.35
2023-01-13T18:27:11.275Z,28.15
2023-01-13T18:29:41.583Z,29.13
2023-01-13T18:32:10.582Z,28.00
2023-01-13T18:34:45.461Z,25.98
2023-01-13T18:37:14.618Z,24.23
2023-01-13T18:39:41.927Z,24.98
2023-01-13T18:42:32.439Z,24.67
2023-01-13T18:45:05.688Z,20.88
2023-01-13T18:47:33.592Z,21.23
2023-01-13T18:50:02.199Z,24.50
2023-01-13T18:52:29.177Z,22.90
2023-01-13T18:54:59.064Z,23.55
2023-01-13T18:57:26.017Z,22.60
2023-01-13T18:59:53.515Z,24.77
2023-01-13T19:02:21.519Z,22.67
2023-01-13T19:04:49.712Z,22.55
2023-01-13T19:07:24.440Z,21.45
2023-01-13T19:09:55.322Z,21.52
2023-01-13T19:12:26.332Z,22.23
2023-01-13T19:14:54.667Z,21.33
2023-01-13T19:17:23.005Z,18.73
2023-01-13T19:19:55.985Z,21.27
2023-01-13T19:22:27.343Z,20.98
2023-01-13T19:24:55.189Z,21.48
2023-01-13T19:27:22.774Z,20.05
2023-01-13T19:29:52.757Z,19.13
2023-01-13T19:32:21.985Z,18.15
2023-01-13T19:34:51.067Z,18.25
2023-01-13T19:37:18.826Z,18.13
2023-01-13T19:39:47.526Z,17.45
2023-01-13T19:42:33.391Z,20.58
2023-01-13T19:45:19.158Z,20.80
2023-01-13T19:47:46.317Z,20.15
2023-01-13T19:50:16.556Z,21.00
2023-01-13T19:52:44.050Z,21.25
2023-01-13T19:55:12.702Z,21.33
2023-01-13T19:57:40.328Z,17.63
2023-01-13T20:00:10.939Z,19.30
2023-01-13T20:02:38.839Z,18.23
2023-01-13T20:05:08.070Z,18.43
2023-01-13T20:07:35.347Z,18.13
2023-01-13T20:10:03.117Z,20.15
2023-01-13T20:12:31.375Z,20.13
2023-01-13T20:14:58.811Z,19.42
2023-01-13T20:17:26.858Z,18.20
2023-01-13T20:19:54.488Z,18.08
2023-01-13T20:22:21.397Z,19.05
2023-01-13T20:24:54.834Z,17.75
2023-01-13T20:27:22.665Z,16.98
2023-01-13T20:29:51.509Z,16.65
2023-01-13T20:32:18.419Z,18.80
2023-01-13T20:34:45.694Z,18.25
2023-01-13T20:37:12.653Z,19.75
2023-01-13T20:39:45.562Z,18.55
2023-01-13T20:42:31.989Z,17.77
2023-01-13T20:45:05.469Z,17.38
2023-01-13T20:47:45.019Z,16.95
2023-01-13T20:50:12.561Z,16.67
2023-01-13T20:52:39.641Z,16.73
2023-01-13T20:55:10.384Z,18.83
2023-01-13T20:57:41.020Z,16.48
2023-01-13T21:00:12.480Z,17.67
2023-01-13T21:02:41.251Z,15.57
2023-01-13T21:05:09.858Z,16.92
2023-01-13T21:07:36.958Z,16.02
2023-01-13T21:10:04.891Z,13.75
2023-01-13T21:12:50.538Z,14.55
2023-01-13T21:15:21.875Z,14.57
2023-01-13T21:18:09.305Z,13.48
2023-01-13T21:20:38.571Z,13.52
2023-01-13T21:23:06.471Z,13.48
2023-01-13T21:25:35.513Z,12.13
2023-01-13T21:28:05.682Z,13.60
2023-01-13T21:30:34.904Z,14.18
2023-01-13T21:33:03.959Z,14.77
2023-01-13T21:35:31.630Z,13.60
2023-01-13T21:37:58.824Z,14.02
2023-01-13T21:40:26.395Z,13.88
2023-01-13T21:43:11.935Z,14.07
2023-01-13T21:45:59.159Z,14.57
2023-01-13T21:48:26.186Z,14.45
2023-01-13T21:50:53.576Z,15.35
2023-01-13T21:53:20.799Z,14.55
2023-01-13T21:55:51.427Z,14.98
2023-01-13T21:58:18.583Z,14.93
2023-01-13T22:00:49.251Z,15.63
2023-01-13T22:03:18.363Z,15.48
2023-01-13T22:08:13.655Z,16.08
2023-01-13T22:11:09.926Z,15.30
2023-01-13T22:13:56.716Z,15.18
2023-01-13T22:16:27.179Z,15.40
2023-01-13T22:19:01.323Z,14.45
2023-01-13T22:21:28.901Z,15.70
2023-01-13T22:23:56.545Z,16.48
2023-01-13T22:26:28.170Z,17.30
2023-01-13T22:28:55.369Z,17.38
2023-01-13T22:31:24.177Z,17.30
2023-01-13T22:33:56.144Z,17.83
2023-01-13T22:36:26.626Z,19.98
2023-01-13T22:38:55.309Z,21.00
2023-01-13T22:41:23.086Z,18.95
2023-01-13T22:43:50.382Z,23.02
2023-01-13T22:46:17.930Z,27.17
2023-01-13T22:48:46.071Z,25.73
2023-01-13T22:51:26.559Z,22.38
2023-01-13T22:53:54.501Z,20.13
2023-01-13T22:56:23.205Z,18.65
2023-01-13T22:58:53.428Z,18.80
2023-01-13T23:01:20.729Z,17.75
2023-01-13T23:03:48.202Z,19.13
2023-01-13T23:06:25.542Z,18.50
2023-01-13T23:08:54.079Z,18.42
2023-01-13T23:11:26.614Z,18.27
2023-01-13T23:13:58.578Z,19.02
2023-01-13T23:16:27.388Z,19.05
2023-01-13T23:18:54.465Z,18.48
2023-01-13T23:21:26.013Z,18.58
2023-01-13T23:23:53.420Z,16.95
2023-01-13T23:26:23.287Z,15.63
2023-01-13T23:28:53.109Z,17.38
2023-01-13T23:31:22.291Z,16.30
2023-01-13T23:33:49.362Z,15.63
2023-01-13T23:36:18.740Z,16.10
2023-01-13T23:38:51.739Z,16.38
2023-01-13T23:41:22.362Z,16.13
2023-01-13T23:43:55.721Z,17.60
2023-01-13T23:46:26.379Z,17.75
2023-01-13T23:48:55.090Z,17.38
2023-01-13T23:51:22.890Z,16.58
2023-01-13T23:53:51.522Z,16.60
2023-01-13T23:56:30.995Z,15.27
2023-01-13T23:58:57.957Z,15.30
